createdAt,value
2018-08-19T00:00:27.315Z,15.7
2018-08-19T00:01:17.718Z,15.7
2018-08-19T00:02:07.725Z,15.7
2018-08-19T00:02:57.783Z,15.7
2018-08-19T00:03:47.896Z,15.7
2018-08-19T00:04:37.930Z,15.6
2018-08-19T00:05:27.979Z,15.6
2018-08-19T00:06:18.095Z,15.6
2018-08-19T00:07:08.108Z,15.6
2018-08-19T00:07:57.893Z,15.6
2018-08-19T00:08:48.301Z,15.6
2018-08-19T00:09:38.027Z,15.6
2018-08-19T00:10:28.377Z,15.5
2018-08-19T00:11:18.433Z,15.6
2018-08-19T00:12:08.509Z,15.5
2018-08-19T00:12:58.563Z,15.5
2018-08-19T00:13:48.369Z,15.5
2018-08-19T00:14:38.688Z,15.5
2018-08-19T00:15:28.484Z,15.5
2018-08-19T00:16:18.599Z,15.4
2018-08-19T00:17:08.909Z,15.5
2018-08-19T00:17:58.984Z,15.4
2018-08-19T00:18:48.993Z,15.4
2018-08-19T00:37:40.576Z,15.1
2018-08-19T00:38:30.632Z,15.1
2018-08-19T00:39:20.420Z,15.1
2018-08-19T00:40:10.472Z,15.1
2018-08-19T00:41:00.539Z,15.1
2018-08-19T00:41:50.905Z,15
2018-08-19T00:42:41.012Z,15
2018-08-19T00:43:30.749Z,15
2018-08-19T00:44:20.789Z,15
2018-08-19T00:45:10.876Z,15
2018-08-19T00:46:01.233Z,14.9
2018-08-19T00:46:51.004Z,14.9
2018-08-19T00:47:41.154Z,14.9
2018-08-19T00:48:31.454Z,14.9
2018-08-19T00:49:21.469Z,14.9
2018-08-19T00:50:11.554Z,14.9
2018-08-19T00:51:01.631Z,14.9
2018-08-19T00:51:51.688Z,14.9
2018-08-19T00:52:41.729Z,14.9
2018-08-19T00:53:31.815Z,14.9
2018-08-19T00:54:21.300Z,14.8
2018-08-19T00:55:11.961Z,14.8
2018-08-19T00:56:01.998Z,14.8
2018-08-19T00:56:52.093Z,14.8
2018-08-19T00:57:42.141Z,14.8
2018-08-19T00:58:32.173Z,14.8
2018-08-19T00:59:21.980Z,14.8
2018-08-19T01:00:12.336Z,14.8
2018-08-19T01:01:02.374Z,14.8
2018-08-19T01:01:52.442Z,14.7
2018-08-19T01:02:42.522Z,14.7
2018-08-19T01:03:32.293Z,14.7
2018-08-19T01:04:22.631Z,14.7
2018-08-19T01:05:12.688Z,14.6
2018-08-19T01:06:02.767Z,14.6
2018-08-19T01:06:52.826Z,14.6
2018-08-19T01:07:42.610Z,14.6
2018-08-19T01:08:32.960Z,14.6
2018-08-19T01:09:22.765Z,14.6
2018-08-19T01:10:13.078Z,14.6
2018-08-19T01:11:03.138Z,14.6
2018-08-19T01:11:52.934Z,14.6
2018-08-19T01:12:42.983Z,14.6
2018-08-19T01:13:33.333Z,14.6
2018-08-19T01:14:23.132Z,14.6
2018-08-19T01:15:13.470Z,14.6
2018-08-19T01:16:03.533Z,14.6
2018-08-19T01:16:53.584Z,14.6
2018-08-19T01:17:43.672Z,14.6
2018-08-19T01:18:33.728Z,14.6
2018-08-19T01:19:23.823Z,14.5
2018-08-19T01:20:13.849Z,14.5
2018-08-19T01:21:03.992Z,14.5
2018-08-19T01:21:53.511Z,14.5
2018-08-19T01:22:44.076Z,14.5
2018-08-19T01:23:33.870Z,14.5
2018-08-19T01:24:23.926Z,14.4
2018-08-19T01:25:14.010Z,14.4
2018-08-19T01:26:04.065Z,14.4
2018-08-19T01:26:54.127Z,14.4
2018-08-19T01:27:44.466Z,14.4
2018-08-19T01:28:33.992Z,14.4
2018-08-19T01:29:24.326Z,14.4
2018-08-19T01:30:14.691Z,14.4
2018-08-19T01:31:04.219Z,14.4
2018-08-19T01:31:54.786Z,14.4
2018-08-19T01:32:44.566Z,14.4
2018-08-19T01:33:34.917Z,14.4
2018-08-19T01:34:24.997Z,14.4
2018-08-19T01:35:15.074Z,14.4
2018-08-19T01:36:04.834Z,14.3
2018-08-19T01:36:55.178Z,14.3
2018-08-19T01:37:44.973Z,14.3
2018-08-19T01:38:34.493Z,14.3
2018-08-19T01:39:25.101Z,14.3
2018-08-19T01:40:15.163Z,14.3
2018-08-19T01:41:04.919Z,14.3
2018-08-19T01:41:55.281Z,14.3
2018-08-19T01:42:45.357Z,14.3
2018-08-19T01:43:35.411Z,14.2
2018-08-19T01:44:25.488Z,14.2
2018-08-19T01:45:15.811Z,14.2
2018-08-19T01:46:05.892Z,14.2
2018-08-19T01:46:55.400Z,14.2
2018-08-19T01:47:45.463Z,14.2
2018-08-19T01:48:36.086Z,14.2
2018-08-19T01:49:25.575Z,14.2
2018-08-19T01:50:16.219Z,14.1
2018-08-19T01:51:06.295Z,14.1
2018-08-19T01:51:56.081Z,14.1
2018-08-19T01:52:46.384Z,14.1
2018-08-19T01:53:36.185Z,14.1
2018-08-19T01:54:26.539Z,14.1
2018-08-19T01:55:16.580Z,14.1
2018-08-19T01:56:06.420Z,14.1
2018-08-19T01:56:56.711Z,14.1
2018-08-19T01:57:46.528Z,14.1
2018-08-19T01:58:36.867Z,14.1
2018-08-19T01:59:26.392Z,14
2018-08-19T02:00:16.986Z,14
2018-08-19T02:01:07.060Z,14
2018-08-19T02:01:57.127Z,14.1
2018-08-19T02:02:47.187Z,14
2018-08-19T02:03:36.707Z,14
2018-08-19T02:04:27.039Z,14
2018-08-19T02:05:17.415Z,14
2018-08-19T02:06:06.916Z,14
2018-08-19T02:06:57.551Z,14
2018-08-19T02:07:47.313Z,13.9
2018-08-19T02:08:37.640Z,13.9
2018-08-19T02:09:27.155Z,13.9
2018-08-19T02:10:17.492Z,13.9
2018-08-19T02:11:07.597Z,13.9
2018-08-19T02:11:57.925Z,13.9
2018-08-19T02:12:48.011Z,13.9
2018-08-19T02:13:37.750Z,13.9
2018-08-19T02:14:28.123Z,13.8
2018-08-19T02:15:18.162Z,13.9
2018-08-19T02:16:07.937Z,13.8
2018-08-19T02:16:58.011Z,13.8
2018-08-19T02:17:48.060Z,13.8
2018-08-19T02:18:38.459Z,13.8
2018-08-19T02:19:28.209Z,13.8
2018-08-19T02:20:18.519Z,13.8
2018-08-19T02:21:08.619Z,13.8
2018-08-19T02:21:58.659Z,13.8
2018-08-19T02:22:47.889Z,13.8
2018-08-19T02:23:38.787Z,13.8
2018-08-19T02:24:28.579Z,13.8
2018-08-19T02:25:18.388Z,13.8
2018-08-19T02:26:08.992Z,13.8
2018-08-19T02:26:58.848Z,13.8
2018-08-19T02:27:48.837Z,13.8
2018-08-19T02:28:38.934Z,13.8
2018-08-19T02:29:29.270Z,13.8
2018-08-19T02:30:19.353Z,13.8
2018-08-19T02:31:09.374Z,13.8
2018-08-19T02:31:59.173Z,13.8
2018-08-19T02:32:49.538Z,13.8
2018-08-19T02:33:39.325Z,13.8
2018-08-19T02:34:29.665Z,13.8
2018-08-19T02:35:19.464Z,13.8
2018-08-19T02:36:09.271Z,13.8
2018-08-19T02:36:59.866Z,13.8
2018-08-19T02:37:49.909Z,13.8
2018-08-19T02:38:39.981Z,13.8
2018-08-19T02:39:30.071Z,13.8
2018-08-19T02:40:19.571Z,13.8
2018-08-19T02:41:10.198Z,13.8
2018-08-19T02:41:59.991Z,13.7
2018-08-19T02:42:50.348Z,13.7
2018-08-19T02:43:40.384Z,13.7
2018-08-19T02:44:30.473Z,13.7
2018-08-19T02:45:20.586Z,13.7
2018-08-19T02:46:10.587Z,13.7
2018-08-19T02:47:00.673Z,13.7
2018-08-19T02:47:50.438Z,13.8
2018-08-19T02:48:40.523Z,13.7
2018-08-19T02:49:30.839Z,13.6
2018-08-19T02:50:20.910Z,13.7
2018-08-19T02:51:10.968Z,13.7
2018-08-19T02:52:01.000Z,13.7
2018-08-19T02:52:51.062Z,13.7
2018-08-19T02:53:40.840Z,13.7
2018-08-19T02:54:31.227Z,13.7
2018-08-19T02:55:21.380Z,13.7
2018-08-19T02:56:11.041Z,13.7
2018-08-19T02:57:00.846Z,13.7
2018-08-19T02:57:51.175Z,13.8
2018-08-19T02:58:41.268Z,13.7
2018-08-19T02:59:31.119Z,13.7
2018-08-19T03:00:21.353Z,13.7
2018-08-19T03:01:11.726Z,13.7
2018-08-19T03:02:01.230Z,13.7
2018-08-19T03:02:51.833Z,13.7
2018-08-19T03:03:41.645Z,13.7
2018-08-19T03:04:31.970Z,13.8
2018-08-19T03:05:22.058Z,13.8
2018-08-19T03:06:12.114Z,13.8
2018-08-19T03:07:02.153Z,13.8
2018-08-19T03:07:52.227Z,13.8
2018-08-19T03:08:42.293Z,13.7
2018-08-19T03:09:32.385Z,13.8
2018-08-19T03:10:22.165Z,13.8
2018-08-19T03:11:12.501Z,13.8
2018-08-19T03:12:02.608Z,13.7
2018-08-19T03:12:52.375Z,13.8
2018-08-19T03:13:42.718Z,13.8
2018-08-19T03:14:32.760Z,13.8
2018-08-19T03:15:22.867Z,13.8
2018-08-19T03:16:12.667Z,13.8
2018-08-19T03:17:02.403Z,13.8
2018-08-19T03:17:53.043Z,13.8
2018-08-19T03:18:43.087Z,13.7
2018-08-19T03:19:32.893Z,13.7
2018-08-19T03:20:23.244Z,13.7
2018-08-19T03:21:13.292Z,13.7
2018-08-19T03:22:03.352Z,13.7
2018-08-19T03:22:53.413Z,13.7
2018-08-19T03:23:43.478Z,13.7
2018-08-19T03:24:33.564Z,13.7
2018-08-19T03:25:23.630Z,13.6
2018-08-19T03:26:13.406Z,13.6
2018-08-19T03:27:03.739Z,13.6
2018-08-19T03:27:53.281Z,13.6
2018-08-19T03:28:43.572Z,13.6
2018-08-19T03:29:33.936Z,13.6
2018-08-19T03:30:24.093Z,13.6
2018-08-19T03:31:13.833Z,13.6
2018-08-19T03:32:04.145Z,13.6
2018-08-19T03:32:54.179Z,13.6
2018-08-19T03:33:44.262Z,13.6
2018-08-19T03:34:34.027Z,13.6
2018-08-19T03:35:23.797Z,13.6
2018-08-19T03:36:14.432Z,13.6
2018-08-19T03:37:04.246Z,13.6
2018-08-19T03:37:54.436Z,13.6
2018-08-19T03:38:44.646Z,13.6
2018-08-19T03:39:34.412Z,13.6
2018-08-19T03:40:24.757Z,13.5
2018-08-19T03:41:14.550Z,13.5
2018-08-19T03:42:04.637Z,13.6
2018-08-19T03:42:54.688Z,13.6
2018-08-19T03:43:44.759Z,13.5
2018-08-19T03:44:35.071Z,13.5
2018-08-19T03:45:25.174Z,13.5
2018-08-19T03:46:15.241Z,13.5
2018-08-19T03:47:05.056Z,13.5
2018-08-19T03:47:55.078Z,13.5
2018-08-19T03:48:45.429Z,13.5
2018-08-19T03:49:35.559Z,13.5
2018-08-19T03:50:25.577Z,13.4
2018-08-19T03:51:15.627Z,13.4
2018-08-19T03:52:05.405Z,13.5
2018-08-19T03:52:55.214Z,13.5
2018-08-19T03:53:45.542Z,13.5
2018-08-19T03:54:35.599Z,13.5
2018-08-19T03:55:25.945Z,13.5
2018-08-19T03:56:15.796Z,13.5
2018-08-19T03:57:06.125Z,13.5
2018-08-19T03:57:55.850Z,13.5
2018-08-19T03:58:46.209Z,13.5
2018-08-19T03:59:35.994Z,13.6
2018-08-19T04:00:25.775Z,13.6
2018-08-19T04:01:16.391Z,13.6
2018-08-19T04:02:06.467Z,13.6
2018-08-19T04:02:56.218Z,13.6
2018-08-19T04:03:46.590Z,13.6
2018-08-19T04:04:35.786Z,13.6
2018-08-19T04:05:26.445Z,13.6
2018-08-19T04:06:16.828Z,13.6
2018-08-19T04:07:06.817Z,13.7
2018-08-19T04:07:56.904Z,13.7
2018-08-19T04:08:46.979Z,13.8
2018-08-19T04:09:36.734Z,13.8
2018-08-19T04:10:26.552Z,13.8
2018-08-19T04:11:16.903Z,13.8
2018-08-19T04:12:06.951Z,13.8
2018-08-19T04:12:57.297Z,13.8
2018-08-19T04:13:47.068Z,13.9
2018-08-19T04:14:36.867Z,13.9
2018-08-19T04:15:27.201Z,13.9
2018-08-19T04:16:17.264Z,14
2018-08-19T04:17:07.367Z,14
2018-08-19T04:17:57.404Z,14
2018-08-19T04:18:47.213Z,14.1
2018-08-19T04:19:37.814Z,14.1
2018-08-19T04:20:27.889Z,14.1
2018-08-19T04:21:17.685Z,14.1
2018-08-19T04:22:08.112Z,14.2
2018-08-19T04:22:57.517Z,14.2
2018-08-19T04:23:47.927Z,14.2
2018-08-19T04:24:37.680Z,14.3
2018-08-19T04:25:28.271Z,14.3
2018-08-19T04:26:18.343Z,14.3
2018-08-19T04:27:07.845Z,14.4
2018-08-19T04:27:58.208Z,14.4
2018-08-19T04:28:48.531Z,14.4
2018-08-19T04:29:38.593Z,14.5
2018-08-19T04:30:28.664Z,14.5
2018-08-19T04:31:18.168Z,14.6
2018-08-19T04:32:08.944Z,14.6
2018-08-19T04:32:58.597Z,14.6
2018-08-19T04:33:48.643Z,14.7
2018-08-19T04:34:38.976Z,14.8
2018-08-19T04:35:29.042Z,14.8
2018-08-19T04:36:19.130Z,14.9
2018-08-19T04:37:09.188Z,15
2018-08-19T04:37:58.993Z,15.1
2018-08-19T04:38:49.302Z,15.3
2018-08-19T04:39:38.997Z,15.4
2018-08-19T04:40:29.492Z,15.6
2018-08-19T04:41:19.486Z,15.8
2018-08-19T04:42:09.439Z,15.9
2018-08-19T04:42:59.613Z,16.2
2018-08-19T04:43:49.438Z,16.4
2018-08-19T04:44:39.758Z,16.6
2018-08-19T04:45:29.543Z,16.9
2018-08-19T04:46:19.615Z,17.1
2018-08-19T04:47:09.669Z,17.3
2018-08-19T04:48:00.023Z,17.6
2018-08-19T04:48:50.081Z,17.8
2018-08-19T05:06:50.294Z,22.9
2018-08-19T05:07:39.939Z,23.3
2018-08-19T05:08:45.098Z,23.5
2018-08-19T05:09:20.473Z,23.9
2018-08-19T05:10:10.930Z,24.1
2018-08-19T05:11:00.653Z,24.3
2018-08-19T05:11:50.662Z,24.6
2018-08-19T05:12:40.507Z,24.8
2018-08-19T05:13:30.788Z,25.1
2018-08-19T05:14:35.276Z,25.4
2018-08-19T05:15:10.435Z,25.8
2018-08-19T05:16:00.573Z,25.9
2018-08-19T05:16:51.071Z,26.3
2018-08-19T05:17:41.379Z,26.5
2018-08-19T05:18:45.849Z,26.8
2018-08-19T05:19:35.920Z,27.1
2018-08-19T05:20:11.338Z,27.4
2018-08-19T05:21:01.430Z,27.8
2018-08-19T05:21:50.897Z,27.9
2018-08-19T05:22:42.428Z,28.3
2018-08-19T05:23:31.324Z,28.6
2018-08-19T05:24:21.663Z,28.9
2018-08-19T05:25:14.658Z,29.2
2018-08-19T05:26:01.514Z,29.6
2018-08-19T05:26:51.853Z,29.9
2018-08-19T05:27:41.691Z,30.2
2018-08-19T05:28:32.239Z,30.5
2018-08-19T05:29:21.758Z,30.9
2018-08-19T05:30:11.824Z,31.1
2018-08-19T05:31:02.175Z,31.4
2018-08-19T05:31:52.286Z,31.8
2018-08-19T05:32:42.300Z,32.1
2018-08-19T05:33:31.799Z,32.4
2018-08-19T05:34:22.406Z,32.8
2018-08-19T05:35:12.470Z,33.2
2018-08-19T05:36:02.559Z,33.5
2018-08-19T05:36:52.349Z,33.9
2018-08-19T05:37:42.404Z,34.3
2018-08-19T05:38:32.748Z,34.6
2018-08-19T05:39:22.514Z,34.9
2018-08-19T05:40:12.590Z,35.3
2018-08-19T05:41:02.954Z,35.8
2018-08-19T05:41:52.992Z,36
2018-08-19T05:42:43.072Z,36.3
2018-08-19T05:43:32.857Z,36.7
2018-08-19T05:44:23.182Z,37.1
2018-08-19T05:45:12.970Z,37.6
2018-08-19T05:46:03.048Z,37.9
2018-08-19T05:46:53.382Z,38.3
2018-08-19T05:47:43.446Z,38.6
2018-08-19T05:48:33.531Z,39
2018-08-19T05:49:23.306Z,39.3
2018-08-19T05:50:13.365Z,39.8
2018-08-19T05:51:03.162Z,40.1
2018-08-19T05:51:53.808Z,40.5
2018-08-19T05:52:43.575Z,40.9
2018-08-19T05:53:33.350Z,41.2
2018-08-19T05:54:24.003Z,41.7
2018-08-19T05:55:13.785Z,41.9
2018-08-19T05:56:03.825Z,42.3
2018-08-19T05:56:54.195Z,42.6
2018-08-19T05:57:44.256Z,43.1
2018-08-19T05:58:34.292Z,43.5
2018-08-19T05:59:24.130Z,43.9
2018-08-19T06:00:14.153Z,44.3
2018-08-19T06:01:04.400Z,44.7
2018-08-19T06:01:54.593Z,45.1
2018-08-19T06:02:44.670Z,45.5
2018-08-19T06:03:34.404Z,45.9
2018-08-19T06:04:24.948Z,46.3
2018-08-19T06:05:14.832Z,46.7
2018-08-19T06:06:04.887Z,47.1
2018-08-19T06:06:54.950Z,47.6
2018-08-19T06:07:45.244Z,47.9
2018-08-19T06:08:34.799Z,48.4
2018-08-19T06:09:25.221Z,48.8
2018-08-19T06:10:15.187Z,49.2
2018-08-19T06:11:05.288Z,49.6
2018-08-19T06:11:55.303Z,49.9
2018-08-19T06:12:45.382Z,50.3
2018-08-19T06:13:35.472Z,50.6
2018-08-19T06:14:25.532Z,51
2018-08-19T06:15:15.616Z,51.4
2018-08-19T06:16:55.720Z,52.2
2018-08-19T06:17:45.764Z,52.6
2018-08-19T06:18:35.619Z,53.1
2018-08-19T06:19:25.957Z,53.4
2018-08-19T06:20:15.982Z,53.9
2018-08-19T06:21:05.812Z,54.3
2018-08-19T06:21:56.353Z,54.7
2018-08-19T06:22:45.612Z,55.1
2018-08-19T06:23:35.658Z,55.4
2018-08-19T06:24:26.017Z,55.8
2018-08-19T06:25:30.740Z,56.3
2018-08-19T06:26:06.441Z,56.8
2018-08-19T06:26:56.224Z,57.1
2018-08-19T06:27:46.658Z,57.6
2018-08-19T06:28:36.387Z,57.9
2018-08-19T06:29:26.436Z,58.3
2018-08-19T06:30:16.497Z,58.7
2018-08-19T06:31:07.287Z,59.1
2018-08-19T06:31:56.633Z,59.5
2018-08-19T06:32:46.319Z,59.8
2018-08-19T06:33:36.463Z,60.1
2018-08-19T06:34:27.403Z,60.4
2018-08-19T06:35:17.213Z,60.9
2018-08-19T06:36:07.222Z,61.6
2018-08-19T06:36:57.349Z,61.9
2018-08-19T06:37:47.361Z,62.3
2018-08-19T06:38:37.418Z,62.7
2018-08-19T06:39:27.199Z,63.1
2018-08-19T06:40:17.676Z,63.4
2018-08-19T06:41:07.645Z,63.8
2018-08-19T06:41:57.727Z,64.3
2018-08-19T06:42:46.964Z,65.7
2018-08-19T06:43:37.795Z,65.9
2018-08-19T06:44:27.868Z,62.4
2018-08-19T06:45:17.919Z,58.2
2018-08-19T06:46:07.964Z,52.7
2018-08-19T06:46:57.464Z,50.1
2018-08-19T06:47:47.814Z,48.9
2018-08-19T06:48:38.188Z,48.3
2018-08-19T06:49:27.982Z,47.9
2018-08-19T06:50:18.027Z,47.9
2018-08-19T06:51:08.296Z,48.4
2018-08-19T06:51:58.431Z,49.2
2018-08-19T06:52:48.504Z,50.1
2018-08-19T06:53:38.568Z,51.1
2018-08-19T06:54:28.617Z,52.1
2018-08-19T06:55:18.681Z,53.3
2018-08-19T06:56:08.858Z,54.4
2018-08-19T06:56:58.812Z,55.4
2018-08-19T06:57:48.934Z,56.5
2018-08-19T06:58:38.947Z,57.6
2018-08-19T06:59:28.544Z,58.5
2018-08-19T07:00:18.941Z,59.5
2018-08-19T07:01:09.321Z,60.4
2018-08-19T07:01:58.942Z,61.4
2018-08-19T07:02:48.714Z,62.4
2018-08-19T07:03:39.765Z,63.4
2018-08-19T07:04:29.149Z,64.2
2018-08-19T07:05:19.478Z,65.2
2018-08-19T07:06:09.281Z,67.1
2018-08-19T07:06:59.364Z,65
2018-08-19T07:07:49.399Z,62.1
2018-08-19T07:08:39.467Z,58.5
2018-08-19T07:09:29.862Z,55.1
2018-08-19T07:10:18.855Z,53.7
2018-08-19T07:11:09.971Z,53.4
2018-08-19T07:11:59.439Z,53.8
2018-08-19T07:12:49.827Z,54.6
2018-08-19T07:13:39.375Z,55.7
2018-08-19T07:14:30.001Z,56.8
2018-08-19T07:15:19.992Z,58
2018-08-19T07:16:10.049Z,59.3
2018-08-19T07:16:59.820Z,60.4
2018-08-19T07:17:50.192Z,61.7
2018-08-19T07:18:41.179Z,62.9
2018-08-19T07:19:30.595Z,64.4
2018-08-19T07:20:20.401Z,66.5
2018-08-19T07:21:10.727Z,65.4
2018-08-19T07:22:00.766Z,64.5
2018-08-19T07:22:50.829Z,62.9
2018-08-19T07:23:40.876Z,60.1
2018-08-19T07:24:30.956Z,57.9
2018-08-19T07:25:21.015Z,57.4
2018-08-19T07:26:11.103Z,58.4
2018-08-19T07:27:01.182Z,59.6
2018-08-19T07:27:51.221Z,60.5
2018-08-19T07:28:41.314Z,60.7
2018-08-19T07:29:31.346Z,60.3
2018-08-19T07:30:21.153Z,59.6
2018-08-19T07:31:11.498Z,59.1
2018-08-19T07:32:01.281Z,59.2
2018-08-19T07:32:51.632Z,59.6
2018-08-19T07:33:41.681Z,59.9
2018-08-19T07:34:31.484Z,60.3
2018-08-19T07:35:21.540Z,60.4
2018-08-19T07:36:11.606Z,60.2
2018-08-19T07:37:02.274Z,60
2018-08-19T07:37:52.045Z,59.9
2018-08-19T07:38:42.101Z,60.1
2018-08-19T07:39:32.153Z,60.3
2018-08-19T07:40:22.221Z,60.6
2018-08-19T07:41:12.301Z,60.7
2018-08-19T07:42:02.095Z,60.9
2018-08-19T07:42:52.157Z,61
2018-08-19T07:43:41.948Z,61.2
2018-08-19T07:44:32.561Z,61.3
2018-08-19T07:45:22.606Z,61.4
2018-08-19T07:46:12.688Z,61.5
2018-08-19T07:47:02.482Z,61.6
2018-08-19T07:47:52.392Z,61.8
2018-08-19T07:48:42.600Z,61.9
2018-08-19T07:49:32.377Z,62.1
2018-08-19T07:50:23.020Z,62.1
2018-08-19T07:51:13.089Z,62.3
2018-08-19T07:52:02.888Z,62.4
2018-08-19T07:52:53.207Z,62.6
2018-08-19T07:53:43.014Z,62.7
2018-08-19T07:54:33.324Z,62.8
2018-08-19T07:55:22.918Z,62.9
2018-08-19T07:56:13.505Z,62.9
2018-08-19T07:57:03.246Z,63.1
2018-08-19T07:57:53.291Z,63.1
2018-08-19T07:58:43.356Z,63.3
2018-08-19T07:59:33.142Z,63.4
2018-08-19T08:00:23.774Z,63.6
2018-08-19T08:01:13.621Z,63.8
2018-08-19T08:02:03.899Z,64
2018-08-19T08:02:54.047Z,64.2
2018-08-19T08:03:43.746Z,64.3
2018-08-19T08:04:34.099Z,64.3
2018-08-19T08:05:23.879Z,64.4
2018-08-19T08:06:14.230Z,64.6
2018-08-19T08:07:04.013Z,64.8
2018-08-19T08:07:54.052Z,64.9
2018-08-19T08:08:44.155Z,65.1
2018-08-19T08:09:34.209Z,65.4
2018-08-19T08:10:24.547Z,65.6
2018-08-19T08:11:14.619Z,65.7
2018-08-19T08:12:04.134Z,65.8
2018-08-19T08:12:54.766Z,65.9
2018-08-19T08:13:45.084Z,66.1
2018-08-19T08:14:34.868Z,66.1
2018-08-19T08:15:24.647Z,66.2
2018-08-19T08:16:15.021Z,66.3
2018-08-19T08:17:05.130Z,66.5
2018-08-19T08:17:54.911Z,66.6
2018-08-19T08:18:45.228Z,66.6
2018-08-19T08:19:35.284Z,66.6
2018-08-19T08:20:25.061Z,66.6
2018-08-19T08:21:16.292Z,66.8
2018-08-19T08:22:05.509Z,67
2018-08-19T08:22:55.338Z,67.3
2018-08-19T08:23:45.343Z,67.5
2018-08-19T08:24:35.494Z,67.7
2018-08-19T08:25:25.770Z,67.8
2018-08-19T08:26:15.805Z,67.8
2018-08-19T08:27:05.871Z,67.6
2018-08-19T08:27:55.972Z,67.6
2018-08-19T08:28:45.441Z,67.7
2018-08-19T08:29:35.590Z,67.8
2018-08-19T08:30:26.152Z,67.8
2018-08-19T08:31:16.197Z,67.8
2018-08-19T08:32:06.269Z,67.9
2018-08-19T08:32:56.047Z,68.1
2018-08-19T08:33:46.095Z,68.4
2018-08-19T08:34:36.466Z,68.4
2018-08-19T08:35:26.256Z,68.6
2018-08-19T08:36:16.083Z,68.8
2018-08-19T08:37:06.360Z,68.8
2018-08-19T08:37:56.702Z,68.8
2018-08-19T08:38:46.495Z,68.9
2018-08-19T08:39:36.829Z,68.9
2018-08-19T08:40:26.654Z,68.9
2018-08-19T08:41:16.696Z,68.9
2018-08-19T08:42:06.745Z,68.7
2018-08-19T08:42:57.134Z,68.8
2018-08-19T08:43:47.195Z,68.9
2018-08-19T08:44:37.437Z,69
2018-08-19T08:45:27.036Z,69.1
2018-08-19T08:46:17.091Z,69.4
2018-08-19T08:47:07.138Z,69.5
2018-08-19T08:47:58.119Z,69.6
2018-08-19T08:48:47.261Z,69.8
2018-08-19T08:49:37.360Z,69.9
2018-08-19T08:50:27.699Z,70.1
2018-08-19T08:51:17.781Z,70.2
2018-08-19T08:52:07.846Z,70.1
2018-08-19T08:52:57.640Z,70.1
2018-08-19T08:53:47.957Z,70.1
2018-08-19T08:54:37.767Z,70.4
2018-08-19T08:55:27.822Z,70.6
2018-08-19T08:56:18.320Z,70.8
2018-08-19T08:57:07.941Z,71
2018-08-19T08:57:58.281Z,71.2
2018-08-19T08:58:48.351Z,71.4
2018-08-19T08:59:38.156Z,71.3
2018-08-19T09:00:28.498Z,71.5
2018-08-19T09:01:17.989Z,71.6
2018-08-19T09:02:08.348Z,71.7
2018-08-19T09:02:58.701Z,71.6
2018-08-19T09:03:48.748Z,71.5
2018-08-19T09:04:38.805Z,71.5
2018-08-19T09:21:09.711Z,72.7
2018-08-19T09:22:00.306Z,72.9
2018-08-19T09:22:50.978Z,72.9
2018-08-19T09:23:40.422Z,72.9
2018-08-19T09:24:30.779Z,72.6
2018-08-19T09:25:20.849Z,72.5
2018-08-19T09:26:10.890Z,72.4
2018-08-19T09:27:00.973Z,72.4
2018-08-19T09:27:50.767Z,72.6
2018-08-19T09:28:41.090Z,72.8
2018-08-19T09:29:31.164Z,72.8
2018-08-19T09:30:20.973Z,72.9
2018-08-19T09:31:11.299Z,72.9
2018-08-19T09:32:01.395Z,72.9
2018-08-19T09:32:51.356Z,72.9
2018-08-19T09:33:41.504Z,72.9
2018-08-19T09:34:31.016Z,72.9
2018-08-19T09:35:21.373Z,72.7
2018-08-19T09:36:11.158Z,72.8
2018-08-19T09:37:01.766Z,72.9
2018-08-19T09:37:51.546Z,73.1
2018-08-19T09:38:41.918Z,73.1
2018-08-19T09:39:31.704Z,72.8
2018-08-19T09:40:21.747Z,72.8
2018-08-19T09:41:12.092Z,72.9
2018-08-19T09:42:02.155Z,72.8
2018-08-19T09:42:51.937Z,72.9
2018-08-19T09:43:41.731Z,73.1
2018-08-19T09:44:32.352Z,73.1
2018-08-19T09:45:22.135Z,73.3
2018-08-19T09:46:12.483Z,73.3
2018-08-19T09:47:02.280Z,73.4
2018-08-19T09:47:53.984Z,73.6
2018-08-19T09:48:42.120Z,73.5
2018-08-19T09:49:32.739Z,73.6
2018-08-19T09:50:22.518Z,73.6
2018-08-19T09:51:12.573Z,73.8
2018-08-19T09:52:02.076Z,73.8
2018-08-19T09:52:52.456Z,73.9
2018-08-19T09:53:43.060Z,73.9
2018-08-19T09:54:33.165Z,73.9
2018-08-19T09:55:22.353Z,74
2018-08-19T09:56:13.253Z,74
2018-08-19T09:57:03.073Z,74
2018-08-19T09:57:53.415Z,74.1
2018-08-19T09:58:42.619Z,74.1
2018-08-19T09:59:33.554Z,74.3
2018-08-19T10:00:23.577Z,74.3
2018-08-19T10:01:13.634Z,74.3
2018-08-19T10:02:03.712Z,74.2
2018-08-19T10:02:53.772Z,74.1
2018-08-19T10:03:43.834Z,74.2
2018-08-19T10:04:33.904Z,74.3
2018-08-19T10:05:23.969Z,74.4
2018-08-19T10:06:13.788Z,74.5
2018-08-19T10:07:03.855Z,74.5
2018-08-19T10:07:54.923Z,74.5
2018-08-19T10:08:43.994Z,74.5
2018-08-19T10:09:34.042Z,74.4
2018-08-19T10:10:24.110Z,74.4
2018-08-19T10:11:14.457Z,74.4
2018-08-19T10:12:04.249Z,74.6
2018-08-19T10:12:54.357Z,74.8
2018-08-19T10:13:45.268Z,75
2018-08-19T10:14:34.160Z,75.1
2018-08-19T10:15:24.784Z,75.1
2018-08-19T10:16:14.554Z,75
2018-08-19T10:17:04.917Z,74.8
2018-08-19T10:17:54.686Z,74.9
2018-08-19T10:18:44.769Z,75
2018-08-19T10:19:34.549Z,74.9
2018-08-19T10:20:24.883Z,74.8
2018-08-19T10:21:15.221Z,74.8
2018-08-19T10:22:05.298Z,75
2018-08-19T10:22:55.351Z,75.1
2018-08-19T10:23:45.133Z,75.1
2018-08-19T10:24:35.490Z,75
2018-08-19T10:25:25.558Z,74.8
2018-08-19T10:26:15.614Z,74.8
2018-08-19T10:27:05.377Z,74.6
2018-08-19T10:27:55.459Z,74.6
2018-08-19T10:28:45.785Z,74.6
2018-08-19T10:29:35.861Z,74.6
2018-08-19T10:30:25.645Z,74.8
2018-08-19T10:31:15.889Z,74.9
2018-08-19T10:32:05.510Z,74.9
2018-08-19T10:32:56.115Z,75
2018-08-19T10:33:46.185Z,75.1
2018-08-19T10:34:36.265Z,75.1
2018-08-19T10:35:26.022Z,75.1
2018-08-19T10:36:16.392Z,75.3
2018-08-19T10:37:06.447Z,75.4
2018-08-19T10:37:56.526Z,75.7
2018-08-19T10:38:46.605Z,75.9
2018-08-19T10:39:36.660Z,75.9
2018-08-19T10:40:26.451Z,75.8
2018-08-19T10:41:16.793Z,75.8
2018-08-19T10:42:06.863Z,75.8
2018-08-19T10:42:56.944Z,75.8
2018-08-19T10:43:46.724Z,75.8
2018-08-19T10:44:37.054Z,75.7
2018-08-19T10:45:27.130Z,75.7
2018-08-19T10:46:17.537Z,75.9
2018-08-19T10:47:07.262Z,75.9
2018-08-19T10:47:57.050Z,75.9
2018-08-19T10:48:47.399Z,75.9
2018-08-19T10:49:37.471Z,76.2
2018-08-19T10:50:27.564Z,76.4
2018-08-19T10:51:17.581Z,76.5
2018-08-19T10:52:07.642Z,76.4
2018-08-19T10:52:57.718Z,76.3
2018-08-19T10:53:47.797Z,76.1
2018-08-19T10:54:37.837Z,75.9
2018-08-19T10:55:27.914Z,75.9
2018-08-19T10:56:18.006Z,76.1
2018-08-19T10:57:07.769Z,76.2
2018-08-19T10:57:58.156Z,76.3
2018-08-19T10:58:48.194Z,76.4
2018-08-19T10:59:38.212Z,76.4
2018-08-19T11:00:27.736Z,76.4
2018-08-19T11:01:17.776Z,76.3
2018-08-19T11:02:08.406Z,76.4
2018-08-19T11:02:57.915Z,76.3
2018-08-19T11:03:48.559Z,76.1
2018-08-19T11:04:38.055Z,76.1
2018-08-19T11:05:28.405Z,75.9
2018-08-19T11:06:18.721Z,75.9
2018-08-19T11:07:08.812Z,76.1
2018-08-19T11:07:58.887Z,76.3
2018-08-19T11:08:48.924Z,76.3
2018-08-19T11:09:39.037Z,76.1
2018-08-19T11:10:29.068Z,76.2
2018-08-19T11:11:19.133Z,76.3
2018-08-19T11:12:08.630Z,76.3
2018-08-19T11:12:58.995Z,76.4
2018-08-19T11:13:49.059Z,76.3
2018-08-19T11:14:39.163Z,76.5
2018-08-19T11:15:29.250Z,76.7
2018-08-19T11:16:19.515Z,76.6
2018-08-19T11:17:09.623Z,76.5
2018-08-19T11:17:59.687Z,76.4
2018-08-19T11:18:49.747Z,76.4
2018-08-19T11:19:39.801Z,76.4
2018-08-19T11:20:29.895Z,76.4
2018-08-19T11:21:20.022Z,76.4
2018-08-19T11:22:09.440Z,76.4
2018-08-19T11:23:00.056Z,76.4
2018-08-19T11:23:49.856Z,76.4
2018-08-19T11:24:40.207Z,75.6
2018-08-19T11:25:30.313Z,73.6
2018-08-19T11:26:20.336Z,71.5
2018-08-19T11:27:10.403Z,70.6
2018-08-19T11:28:00.454Z,70.8
2018-08-19T11:28:50.268Z,70.3
2018-08-19T11:29:40.047Z,69.5
2018-08-19T11:30:30.647Z,68.9
2018-08-19T11:31:20.677Z,69.7
2018-08-19T11:32:10.529Z,71.2
2018-08-19T11:33:00.856Z,72.2
2018-08-19T11:33:51.256Z,72.3
2018-08-19T11:34:40.697Z,72.1
2018-08-19T11:35:31.046Z,72.2
2018-08-19T11:36:21.089Z,71.3
2018-08-19T11:37:11.153Z,69.5
2018-08-19T11:38:01.237Z,68.7
2018-08-19T11:38:51.307Z,69
2018-08-19T11:39:41.082Z,70.1
2018-08-19T11:40:31.139Z,70.4
2018-08-19T11:41:20.913Z,70.5
2018-08-19T11:42:11.557Z,71.3
2018-08-19T11:43:01.606Z,71.8
2018-08-19T11:43:51.714Z,70.9
2018-08-19T11:44:41.771Z,69.2
2018-08-19T11:45:31.814Z,67.6
2018-08-19T11:46:21.886Z,66.6
2018-08-19T11:47:11.950Z,66
2018-08-19T11:48:02.008Z,65.5
2018-08-19T11:48:52.547Z,65.1
2018-08-19T11:49:42.145Z,64.9
2018-08-19T11:50:32.208Z,64.7
2018-08-19T11:51:22.267Z,65
2018-08-19T11:52:12.349Z,66.3
2018-08-19T11:53:02.426Z,67.8
2018-08-19T11:53:52.503Z,68.9
2018-08-19T11:54:42.566Z,69.4
2018-08-19T11:55:32.639Z,69.6
2018-08-19T11:56:22.688Z,69.5
2018-08-19T11:57:12.478Z,69.4
2018-08-19T11:58:02.821Z,69.2
2018-08-19T11:58:52.892Z,69.1
2018-08-19T11:59:42.698Z,69.5
2018-08-19T12:00:33.034Z,70.3